sensor_id;sensor_type;location;lat;lon;timestamp;pressure;altitude;pressure_sealevel;temperature;humidity
21449;BME280;10885;52.830;13.788;2023-08-06T07:47:36;100066.00;;;18.69;86.26
21449;BME280;10885;52.830;13.788;2023-08-06T07:52:39;100066.78;;;18.65;86.80
21449;BME280;10885;52.830;13.788;2023-08-06T07:57:42;100064.94;;;18.60;87.18
21449;BME280;10885;52.830;13.788;2023-08-06T08:02:44;100062.31;;;18.57;87.53
21449;BME280;10885;52.830;13.788;2023-08-06T08:07:48;100056.31;;;18.59;87.43
21449;BME280;10885;52.830;13.788;2023-08-06T08:12:51;100052.09;;;18.66;87.19
21449;BME280;10885;52.830;13.788;2023-08-06T08:17:53;100045.97;;;18.62;87.14
21449;BME280;10885;52.830;13.788;2023-08-06T08:22:56;100041.69;;;18.64;86.98
21449;BME280;10885;52.830;13.788;2023-08-06T08:27:59;100026.97;;;18.62;87.23
21449;BME280;10885;52.830;13.788;2023-08-06T08:33:01;100029.69;;;18.68;87.38
21449;BME280;10885;52.830;13.788;2023-08-06T08:38:04;100008.97;;;18.69;87.01
21449;BME280;10885;52.830;13.788;2023-08-06T08:43:06;100008.97;;;18.69;87.63
21449;BME280;10885;52.830;13.788;2023-08-06T08:48:11;100004.88;;;18.81;87.06
21449;BME280;10885;52.830;13.788;2023-08-06T08:53:17;99995.38;;;18.81;86.60
21449;BME280;10885;52.830;13.788;2023-08-06T08:58:19;100000.28;;;18.66;86.82
21449;BME280;10885;52.830;13.788;2023-08-06T09:03:23;99994.97;;;18.60;87.47
21449;BME280;10885;52.830;13.788;2023-08-06T09:08:30;99990.69;;;18.62;87.33
21449;BME280;10885;52.830;13.788;2023-08-06T09:13:35;99980.28;;;18.59;87.68
21449;BME280;10885;52.830;13.788;2023-08-06T09:18:39;99988.19;;;18.65;87.93
21449;BME280;10885;52.830;13.788;2023-08-06T09:23:42;99982.16;;;18.67;87.73
21449;BME280;10885;52.830;13.788;2023-08-06T09:28:45;99978.81;;;18.73;87.49
21449;BME280;10885;52.830;13.788;2023-08-06T09:33:47;99975.63;;;18.85;87.36
21449;BME280;10885;52.830;13.788;2023-08-06T09:38:51;99967.97;;;18.94;86.41
21449;BME280;10885;52.830;13.788;2023-08-06T09:43:54;99968.88;;;18.96;86.40
21449;BME280;10885;52.830;13.788;2023-08-06T09:48:56;99961.16;;;18.99;86.45
21449;BME280;10885;52.830;13.788;2023-08-06T09:54:01;99954.38;;;19.07;85.78
21449;BME280;10885;52.830;13.788;2023-08-06T09:59:18;99944.66;;;18.94;85.18
21449;BME280;10885;52.830;13.788;2023-08-06T10:04:21;99934.44;;;19.03;85.41
21449;BME280;10885;52.830;13.788;2023-08-06T10:09:30;99932.78;;;19.07;85.43
21449;BME280;10885;52.830;13.788;2023-08-06T10:14:35;99927.63;;;19.10;85.26
21449;BME280;10885;52.830;13.788;2023-08-06T10:19:39;99922.50;;;19.13;84.66
21449;BME280;10885;52.830;13.788;2023-08-06T10:29:53;99921.63;;;19.14;84.67
21449;BME280;10885;52.830;13.788;2023-08-06T10:34:59;99920.78;;;19.14;85.34
21449;BME280;10885;52.830;13.788;2023-08-06T10:40:06;99915.78;;;19.26;85.13
21449;BME280;10885;52.830;13.788;2023-08-06T10:45:14;99914.13;;;19.31;83.96
21449;BME280;10885;52.830;13.788;2023-08-06T10:50:17;99913.28;;;19.31;84.24
21449;BME280;10885;52.830;13.788;2023-08-06T10:55:25;99896.22;;;19.46;83.82
21449;BME280;10885;52.830;13.788;2023-08-06T11:00:28;99896.25;;;19.49;84.25
21449;BME280;10885;52.830;13.788;2023-08-06T11:05:30;99884.00;;;19.41;83.67
21449;BME280;10885;52.830;13.788;2023-08-06T11:10:33;99881.44;;;19.44;83.88
21449;BME280;10885;52.830;13.788;2023-08-06T11:15:36;99880.84;;;19.63;83.41
21449;BME280;10885;52.830;13.788;2023-08-06T11:20:39;99874.84;;;19.64;82.88
21449;BME280;10885;52.830;13.788;2023-08-06T11:25:45;99863.56;;;19.62;82.87
21449;BME280;10885;52.830;13.788;2023-08-06T11:30:49;99856.75;;;19.74;83.39
21449;BME280;10885;52.830;13.788;2023-08-06T11:35:53;99849.06;;;19.78;83.12
21449;BME280;10885;52.830;13.788;2023-08-06T11:40:57;99851.75;;;19.86;82.42
21449;BME280;10885;52.830;13.788;2023-08-06T11:45:59;99846.38;;;19.74;82.64
21449;BME280;10885;52.830;13.788;2023-08-06T11:51:02;99836.72;;;19.63;83.71
21449;BME280;10885;52.830;13.788;2023-08-06T11:56:07;99840.16;;;19.59;84.02
21449;BME280;10885;52.830;13.788;2023-08-06T12:01:11;99840.19;;;19.64;83.92
21449;BME280;10885;52.830;13.788;2023-08-06T12:06:13;99832.47;;;19.68;84.31
21449;BME280;10885;52.830;13.788;2023-08-06T12:11:16;99831.72;;;19.77;83.84
21449;BME280;10885;52.830;13.788;2023-08-06T12:16:18;99811.03;;;19.80;82.92
21449;BME280;10885;52.830;13.788;2023-08-06T12:21:23;99823.91;;;19.74;83.25
21449;BME280;10885;52.830;13.788;2023-08-06T12:26:25;99819.50;;;19.70;82.91
21449;BME280;10885;52.830;13.788;2023-08-06T12:31:28;99816.84;;;19.65;83.37
21449;BME280;10885;52.830;13.788;2023-08-06T12:36:31;99817.69;;;19.63;83.08
21449;BME280;10885;52.830;13.788;2023-08-06T12:41:33;99819.44;;;19.64;83.58
21449;BME280;10885;52.830;13.788;2023-08-06T12:46:36;99823.72;;;19.60;83.38
21449;BME280;10885;52.830;13.788;2023-08-06T12:51:38;99820.97;;;19.46;82.93
21449;BME280;10885;52.830;13.788;2023-08-06T12:56:41;99822.31;;;19.20;81.85
21449;BME280;10885;52.830;13.788;2023-08-06T13:01:44;99817.81;;;19.06;82.19
21449;BME280;10885;52.830;13.788;2023-08-06T13:06:47;99808.94;;;18.92;82.40
21449;BME280;10885;52.830;13.788;2023-08-06T13:11:49;99810.47;;;18.81;81.82
21449;BME280;10885;52.830;13.788;2023-08-06T13:16:52;99811.16;;;18.69;83.03
21449;BME280;10885;52.830;13.788;2023-08-06T13:22:01;99806.88;;;18.71;82.65
21449;BME280;10885;52.830;13.788;2023-08-06T13:27:04;99813.78;;;18.72;83.80
21449;BME280;10885;52.830;13.788;2023-08-06T13:32:07;99814.56;;;18.68;83.66
21449;BME280;10885;52.830;13.788;2023-08-06T13:37:09;99810.28;;;18.70;83.87
21449;BME280;10885;52.830;13.788;2023-08-06T13:42:13;99801.59;;;18.65;83.97
21449;BME280;10885;52.830;13.788;2023-08-06T13:47:16;99810.38;;;18.76;83.88
21449;BME280;10885;52.830;13.788;2023-08-06T13:52:18;99804.31;;;18.73;84.21
21449;BME280;10885;52.830;13.788;2023-08-06T13:57:24;99803.28;;;18.63;84.68
21449;BME280;10885;52.830;13.788;2023-08-06T14:02:26;99801.56;;;18.63;84.40
21449;BME280;10885;52.830;13.788;2023-08-06T14:07:29;99799.53;;;18.45;84.67
21449;BME280;10885;52.830;13.788;2023-08-06T14:12:32;99804.63;;;18.41;85.02
21449;BME280;10885;52.830;13.788;2023-08-06T14:17:34;99794.16;;;18.33;85.36
21449;BME280;10885;52.830;13.788;2023-08-06T14:22:37;99807.16;;;18.38;85.12
21449;BME280;10885;52.830;13.788;2023-08-06T14:27:40;99815.81;;;18.38;85.96
21449;BME280;10885;52.830;13.788;2023-08-06T14:32:43;99806.31;;;18.37;85.67
21449;BME280;10885;52.830;13.788;2023-08-06T14:37:46;99820.25;;;18.45;85.48
21449;BME280;10885;52.830;13.788;2023-08-06T14:42:48;99820.19;;;18.41;85.25
21449;BME280;10885;52.830;13.788;2023-08-06T14:47:51;99816.72;;;18.42;84.75
21449;BME280;10885;52.830;13.788;2023-08-06T14:52:53;99821.81;;;18.36;84.84
21449;BME280;10885;52.830;13.788;2023-08-06T14:57:56;99806.31;;;18.37;84.74
21449;BME280;10885;52.830;13.788;2023-08-06T15:02:59;99818.16;;;18.24;84.77
21449;BME280;10885;52.830;13.788;2023-08-06T15:08:01;99819.81;;;18.21;84.04
21449;BME280;10885;52.830;13.788;2023-08-06T15:13:04;99818.72;;;18.08;84.54
21449;BME280;10885;52.830;13.788;2023-08-06T15:18:07;99818.78;;;18.13;84.56
21449;BME280;10885;52.830;13.788;2023-08-06T15:23:09;99816.94;;;18.05;84.38
21449;BME280;10885;52.830;13.788;2023-08-06T15:28:12;99816.69;;;17.92;84.57
21449;BME280;10885;52.830;13.788;2023-08-06T15:33:14;99828.75;;;17.93;84.18
21449;BME280;10885;52.830;13.788;2023-08-06T15:38:17;99822.53;;;17.83;83.13
21449;BME280;10885;52.830;13.788;2023-08-06T15:43:20;99819.50;;;17.61;83.24
21449;BME280;10885;52.830;13.788;2023-08-06T15:48:22;99817.38;;;17.42;85.00
21449;BME280;10885;52.830;13.788;2023-08-06T15:53:25;99812.88;;;17.35;85.02
21449;BME280;10885;52.830;13.788;2023-08-06T16:23:25;99810.31;;;24.53;57.82
21449;BME280;10885;52.830;13.788;2023-08-06T16:28:28;99806.06;;;24.40;58.38
21449;BME280;10885;52.830;13.788;2023-08-06T16:33:31;99800.13;;;24.18;58.31
21449;BME280;10885;52.830;13.788;2023-08-06T16:38:34;99796.56;;;24.27;58.56
21449;BME280;10885;52.830;13.788;2023-08-06T16:43:36;99797.44;;;24.30;58.48
21449;BME280;10885;52.830;13.788;2023-08-06T16:48:43;99792.94;;;24.48;57.84
21449;BME280;10885;52.830;13.788;2023-08-06T16:53:46;99794.56;;;24.59;56.69
21449;BME280;10885;52.830;13.788;2023-08-06T16:58:49;99787.56;;;24.65;56.87
21449;BME280;10885;52.830;13.788;2023-08-06T17:03:52;99797.13;;;24.69;55.92
21449;BME280;10885;52.830;13.788;2023-08-06T17:08:57;99779.66;;;24.71;55.74
21449;BME280;10885;52.830;13.788;2023-08-06T17:14:00;99784.88;;;24.71;55.55
21449;BME280;10885;52.830;13.788;2023-08-06T17:19:03;99782.06;;;24.95;55.48
21449;BME280;10885;52.830;13.788;2023-08-06T17:21:35;99778.59;;;25.71;55.00
21449;BME280;10885;52.830;13.788;2023-08-06T17:21:53;99785.31;;;25.92;53.14
21449;BME280;10885;52.830;13.788;2023-08-06T17:22:11;99775.94;;;26.36;63.52
21449;BME280;10885;52.830;13.788;2023-08-06T17:22:29;99784.25;;;26.63;56.95
21449;BME280;10885;52.830;13.788;2023-08-06T17:22:46;99790.34;;;26.63;55.92
21449;BME280;10885;52.830;13.788;2023-08-06T17:23:04;99778.13;;;26.62;55.97
21449;BME280;10885;52.830;13.788;2023-08-06T17:23:22;99772.00;;;26.62;50.00
21449;BME280;10885;52.830;13.788;2023-08-06T17:23:39;99786.41;;;26.36;48.26
21449;BME280;10885;52.830;13.788;2023-08-06T17:23:59;99777.53;;;25.84;49.08
21449;BME280;10885;52.830;13.788;2023-08-06T17:24:20;99770.44;;;25.22;50.62
21449;BME280;10885;52.830;13.788;2023-08-06T17:24:37;99772.25;;;25.17;54.87
21449;BME280;10885;52.830;13.788;2023-08-06T17:24:55;99772.13;;;25.28;54.23
21449;BME280;10885;52.830;13.788;2023-08-06T17:25:42;99776.34;;;24.52;50.88
21449;BME280;10885;52.830;13.788;2023-08-06T17:26:00;99781.97;;;23.87;52.69
21449;BME280;10885;52.830;13.788;2023-08-06T17:26:18;99783.09;;;23.34;54.43
21449;BME280;10885;52.830;13.788;2023-08-06T17:26:35;99779.72;;;22.79;56.06
21449;BME280;10885;52.830;13.788;2023-08-06T17:26:53;99773.59;;;22.28;57.93
21449;BME280;10885;52.830;13.788;2023-08-06T17:27:15;99775.22;;;21.74;59.97
21449;BME280;10885;52.830;13.788;2023-08-06T17:27:33;99771.56;;;21.30;61.04
21449;BME280;10885;52.830;13.788;2023-08-06T17:27:50;99773.94;;;20.90;62.90
21449;BME280;10885;52.830;13.788;2023-08-06T17:28:08;99769.31;;;20.54;64.48
21449;BME280;10885;52.830;13.788;2023-08-06T17:28:26;99776.00;;;20.24;65.65
21449;BME280;10885;52.830;13.788;2023-08-06T17:28:43;99772.22;;;19.96;66.66
21449;BME280;10885;52.830;13.788;2023-08-06T17:29:01;99772.72;;;19.65;67.61
21449;BME280;10885;52.830;13.788;2023-08-06T17:29:19;99770.72;;;19.41;68.80
21449;BME280;10885;52.830;13.788;2023-08-06T17:29:36;99776.47;;;19.20;69.78
21449;BME280;10885;52.830;13.788;2023-08-06T17:34:56;99768.25;;;17.02;80.99
21449;BME280;10885;52.830;13.788;2023-08-06T17:39:59;99770.56;;;16.20;87.64
21449;BME280;10885;52.830;13.788;2023-08-06T17:45:01;99774.56;;;15.77;92.34
21449;BME280;10885;52.830;13.788;2023-08-06T17:50:04;99762.69;;;15.53;94.13
21449;BME280;10885;52.830;13.788;2023-08-06T17:55:08;99753.78;;;15.42;95.96
21449;BME280;10885;52.830;13.788;2023-08-06T18:00:11;99752.66;;;15.32;97.34
21449;BME280;10885;52.830;13.788;2023-08-06T18:05:13;99751.66;;;15.27;99.00
21449;BME280;10885;52.830;13.788;2023-08-06T18:10:17;99754.22;;;15.27;100.00
21449;BME280;10885;52.830;13.788;2023-08-06T18:15:20;99755.78;;;15.22;100.00
21449;BME280;10885;52.830;13.788;2023-08-06T18:20:23;99766.94;;;15.21;100.00
21449;BME280;10885;52.830;13.788;2023-08-06T18:25:25;99770.72;;;15.32;100.00
21449;BME280;10885;52.830;13.788;2023-08-06T18:30:28;99771.13;;;15.46;100.00
21449;BME280;10885;52.830;13.788;2023-08-06T18:35:30;99781.97;;;15.36;97.25
21449;BME280;10885;52.830;13.788;2023-08-06T18:40:34;99788.38;;;15.20;96.37
21449;BME280;10885;52.830;13.788;2023-08-06T18:45:36;99800.94;;;15.09;95.56
21449;BME280;10885;52.830;13.788;2023-08-06T18:50:44;99795.50;;;15.00;95.41
21449;BME280;10885;52.830;13.788;2023-08-06T18:55:48;99795.06;;;14.86;95.06
21449;BME280;10885;52.830;13.788;2023-08-06T19:00:58;99800.56;;;14.70;93.40
21449;BME280;10885;52.830;13.788;2023-08-06T19:06:00;99796.72;;;14.57;93.60
21449;BME280;10885;52.830;13.788;2023-08-06T19:11:05;99800.69;;;14.47;93.73
21449;BME280;10885;52.830;13.788;2023-08-06T19:16:07;99811.66;;;14.42;94.63
21449;BME280;10885;52.830;13.788;2023-08-06T19:21:10;99800.38;;;14.38;94.90
21449;BME280;10885;52.830;13.788;2023-08-06T19:26:12;99803.63;;;14.32;94.59
21449;BME280;10885;52.830;13.788;2023-08-06T19:31:15;99794.78;;;14.26;94.40
21449;BME280;10885;52.830;13.788;2023-08-06T19:36:18;99802.41;;;14.23;94.87
21449;BME280;10885;52.830;13.788;2023-08-06T19:41:20;99800.47;;;14.16;94.82
21449;BME280;10885;52.830;13.788;2023-08-06T19:46:25;99788.50;;;14.18;95.40
21449;BME280;10885;52.830;13.788;2023-08-06T19:51:28;99788.47;;;14.16;95.81
21449;BME280;10885;52.830;13.788;2023-08-06T19:56:31;99779.75;;;14.12;96.17
21449;BME280;10885;52.830;13.788;2023-08-06T20:01:34;99786.47;;;14.09;96.78
21449;BME280;10885;52.830;13.788;2023-08-06T20:06:37;99805.38;;;14.09;97.12
21449;BME280;10885;52.830;13.788;2023-08-06T20:11:39;99796.69;;;14.06;97.06
21449;BME280;10885;52.830;13.788;2023-08-06T20:16:42;99806.00;;;14.02;96.63
21449;BME280;10885;52.830;13.788;2023-08-06T20:21:46;99804.97;;;13.97;97.46
21449;BME280;10885;52.830;13.788;2023-08-06T20:26:49;99800.56;;;13.94;97.78
21449;BME280;10885;52.830;13.788;2023-08-06T20:31:51;99800.47;;;13.91;98.26
21449;BME280;10885;52.830;13.788;2023-08-06T20:36:54;99807.28;;;13.89;97.86
21449;BME280;10885;52.830;13.788;2023-08-06T20:41:58;99802.88;;;13.87;97.96
